sensor_id;sensor_type;location;lat;lon;timestamp;pressure;altitude;pressure_sealevel;temperature;humidity
53300;BME280;39187;48.476;8.310;2023-07-13T00:01:46;91463.41;;;16.58;74.40
53300;BME280;39187;48.476;8.310;2023-07-13T00:04:19;91452.06;;;16.54;74.58
53300;BME280;39187;48.476;8.310;2023-07-13T00:06:46;91446.84;;;16.51;74.61
53300;BME280;39187;48.476;8.310;2023-07-13T00:09:16;91452.75;;;16.45;75.24
53300;BME280;39187;48.476;8.310;2023-07-13T00:11:43;91446.34;;;16.43;75.07
53300;BME280;39187;48.476;8.310;2023-07-13T00:14:10;91439.91;;;16.40;75.17
53300;BME280;39187;48.476;8.310;2023-07-13T00:16:37;91445.88;;;16.35;76.09
53300;BME280;39187;48.476;8.310;2023-07-13T00:19:04;91448.25;;;16.24;77.57
53300;BME280;39187;48.476;8.310;2023-07-13T00:21:30;91446.97;;;16.07;78.51
53300;BME280;39187;48.476;8.310;2023-07-13T00:23:56;91443.41;;;16.10;77.72
53300;BME280;39187;48.476;8.310;2023-07-13T00:26:21;91451.78;;;16.12;77.54
53300;BME280;39187;48.476;8.310;2023-07-13T00:28:47;91452.53;;;16.13;78.79
53300;BME280;39187;48.476;8.310;2023-07-13T00:31:13;91453.97;;;16.04;78.83
53300;BME280;39187;48.476;8.310;2023-07-13T00:33:42;91455.75;;;15.98;78.10
53300;BME280;39187;48.476;8.310;2023-07-13T00:36:08;91446.78;;;16.01;78.47
53300;BME280;39187;48.476;8.310;2023-07-13T00:38:34;91439.00;;;15.94;78.33
53300;BME280;39187;48.476;8.310;2023-07-13T00:41:00;91442.00;;;15.96;78.29
53300;BME280;39187;48.476;8.310;2023-07-13T00:43:27;91437.56;;;16.02;77.14
53300;BME280;39187;48.476;8.310;2023-07-13T00:48:21;91427.38;;;15.97;77.01
53300;BME280;39187;48.476;8.310;2023-07-13T00:50:52;91427.50;;;15.94;77.23
53300;BME280;39187;48.476;8.310;2023-07-13T00:53:19;91427.66;;;15.90;77.63
53300;BME280;39187;48.476;8.310;2023-07-13T00:55:47;91423.03;;;15.91;75.97
53300;BME280;39187;48.476;8.310;2023-07-13T00:58:14;91428.72;;;15.93;76.85
53300;BME280;39187;48.476;8.310;2023-07-13T01:00:41;91422.28;;;15.90;75.90
53300;BME280;39187;48.476;8.310;2023-07-13T01:03:07;91427.34;;;15.88;76.12
53300;BME280;39187;48.476;8.310;2023-07-13T01:05:34;91428.22;;;15.85;76.98
53300;BME280;39187;48.476;8.310;2023-07-13T01:08:01;91425.97;;;15.84;77.48
53300;BME280;39187;48.476;8.310;2023-07-13T01:10:27;91426.25;;;15.77;77.04
53300;BME280;39187;48.476;8.310;2023-07-13T01:12:53;91423.25;;;15.75;76.40
53300;BME280;39187;48.476;8.310;2023-07-13T01:15:44;91423.25;;;15.75;76.73
53300;BME280;39187;48.476;8.310;2023-07-13T01:18:13;91425.28;;;15.61;79.13
53300;BME280;39187;48.476;8.310;2023-07-13T01:20:40;91412.47;;;15.66;78.14
53300;BME280;39187;48.476;8.310;2023-07-13T01:23:09;91408.88;;;15.59;77.80
53300;BME280;39187;48.476;8.310;2023-07-13T01:25:36;91417.66;;;15.60;77.33
53300;BME280;39187;48.476;8.310;2023-07-13T01:28:04;91419.91;;;15.61;77.83
53300;BME280;39187;48.476;8.310;2023-07-13T01:30:29;91426.00;;;15.40;79.53
53300;BME280;39187;48.476;8.310;2023-07-13T01:32:56;91412.97;;;15.51;79.16
53300;BME280;39187;48.476;8.310;2023-07-13T01:35:21;91421.41;;;15.41;79.67
53300;BME280;39187;48.476;8.310;2023-07-13T01:37:47;91418.06;;;15.37;80.59
53300;BME280;39187;48.476;8.310;2023-07-13T01:40:12;91412.28;;;15.38;79.58
53300;BME280;39187;48.476;8.310;2023-07-13T01:42:39;91410.78;;;15.37;79.62
53300;BME280;39187;48.476;8.310;2023-07-13T01:45:04;91414.22;;;15.38;79.49
53300;BME280;39187;48.476;8.310;2023-07-13T01:47:30;91413.00;;;15.30;80.14
53300;BME280;39187;48.476;8.310;2023-07-13T01:49:57;91422.47;;;15.21;81.05
53300;BME280;39187;48.476;8.310;2023-07-13T01:52:23;91420.28;;;15.29;80.36
53300;BME280;39187;48.476;8.310;2023-07-13T01:54:49;91411.91;;;15.27;80.44
53300;BME280;39187;48.476;8.310;2023-07-13T01:57:15;91410.84;;;15.24;79.62
53300;BME280;39187;48.476;8.310;2023-07-13T01:59:40;91413.09;;;15.26;79.60
53300;BME280;39187;48.476;8.310;2023-07-13T02:02:06;91409.31;;;15.14;80.60
53300;BME280;39187;48.476;8.310;2023-07-13T02:04:32;91409.91;;;15.18;80.46
53300;BME280;39187;48.476;8.310;2023-07-13T02:06:57;91406.38;;;15.21;80.26
53300;BME280;39187;48.476;8.310;2023-07-13T02:09:23;91407.63;;;15.08;81.48
53300;BME280;39187;48.476;8.310;2023-07-13T02:11:48;91406.69;;;15.02;81.17
53300;BME280;39187;48.476;8.310;2023-07-13T02:14:14;91414.28;;;15.03;81.42
53300;BME280;39187;48.476;8.310;2023-07-13T02:16:40;91412.53;;;15.09;80.91
53300;BME280;39187;48.476;8.310;2023-07-13T02:19:06;91413.84;;;15.05;80.34
53300;BME280;39187;48.476;8.310;2023-07-13T02:21:32;91418.72;;;14.97;80.83
53300;BME280;39187;48.476;8.310;2023-07-13T02:23:57;91418.56;;;15.01;81.30
53300;BME280;39187;48.476;8.310;2023-07-13T02:26:23;91426.25;;;14.90;82.59
53300;BME280;39187;48.476;8.310;2023-07-13T02:28:49;91429.22;;;14.92;81.44
53300;BME280;39187;48.476;8.310;2023-07-13T02:31:15;91421.19;;;14.92;81.40
53300;BME280;39187;48.476;8.310;2023-07-13T02:33:41;91424.59;;;14.92;80.93
53300;BME280;39187;48.476;8.310;2023-07-13T02:36:07;91419.25;;;14.92;81.60
53300;BME280;39187;48.476;8.310;2023-07-13T02:38:34;91416.81;;;14.85;82.87
53300;BME280;39187;48.476;8.310;2023-07-13T02:41:02;91406.97;;;14.82;82.51
53300;BME280;39187;48.476;8.310;2023-07-13T02:43:27;91411.25;;;14.79;82.21
53300;BME280;39187;48.476;8.310;2023-07-13T02:45:53;91414.16;;;14.72;83.15
53300;BME280;39187;48.476;8.310;2023-07-13T02:48:18;91416.78;;;14.63;84.45
53300;BME280;39187;48.476;8.310;2023-07-13T02:50:44;91405.88;;;14.58;84.53
53300;BME280;39187;48.476;8.310;2023-07-13T02:53:10;91411.75;;;14.65;84.27
53300;BME280;39187;48.476;8.310;2023-07-13T02:55:36;91419.53;;;14.72;84.15
53300;BME280;39187;48.476;8.310;2023-07-13T02:58:01;91419.84;;;14.74;83.93
53300;BME280;39187;48.476;8.310;2023-07-13T03:00:27;91416.00;;;14.75;83.31
53300;BME280;39187;48.476;8.310;2023-07-13T03:02:53;91414.06;;;14.76;83.59
53300;BME280;39187;48.476;8.310;2023-07-13T03:05:22;91413.19;;;14.79;83.86
53300;BME280;39187;48.476;8.310;2023-07-13T03:07:47;91419.63;;;14.81;83.94
53300;BME280;39187;48.476;8.310;2023-07-13T03:10:13;91421.97;;;14.79;84.07
53300;BME280;39187;48.476;8.310;2023-07-13T03:12:38;91419.28;;;14.79;84.07
53300;BME280;39187;48.476;8.310;2023-07-13T03:15:04;91423.19;;;14.78;84.13
53300;BME280;39187;48.476;8.310;2023-07-13T03:17:30;91429.16;;;14.82;84.39
53300;BME280;39187;48.476;8.310;2023-07-13T03:19:56;91431.84;;;14.82;84.33
53300;BME280;39187;48.476;8.310;2023-07-13T03:22:22;91422.28;;;14.81;85.05
53300;BME280;39187;48.476;8.310;2023-07-13T03:24:48;91427.78;;;14.78;85.34
53300;BME280;39187;48.476;8.310;2023-07-13T03:27:15;91425.09;;;14.78;85.92
53300;BME280;39187;48.476;8.310;2023-07-13T03:29:40;91428.97;;;14.77;85.82
53300;BME280;39187;48.476;8.310;2023-07-13T03:32:06;91439.47;;;14.71;86.08
53300;BME280;39187;48.476;8.310;2023-07-13T03:34:32;91435.84;;;14.65;86.78
53300;BME280;39187;48.476;8.310;2023-07-13T03:36:58;91437.13;;;14.61;86.05
53300;BME280;39187;48.476;8.310;2023-07-13T03:39:23;91434.69;;;14.54;85.76
53300;BME280;39187;48.476;8.310;2023-07-13T03:41:49;91438.78;;;14.46;86.05
53300;BME280;39187;48.476;8.310;2023-07-13T03:44:16;91442.88;;;14.37;86.77
53300;BME280;39187;48.476;8.310;2023-07-13T03:46:42;91452.16;;;14.33;87.28
53300;BME280;39187;48.476;8.310;2023-07-13T03:49:07;91445.31;;;14.32;87.62
53300;BME280;39187;48.476;8.310;2023-07-13T03:51:33;91460.94;;;14.33;86.63
53300;BME280;39187;48.476;8.310;2023-07-13T03:53:59;91453.22;;;14.35;86.00
53300;BME280;39187;48.476;8.310;2023-07-13T03:56:24;91452.41;;;14.38;85.44
53300;BME280;39187;48.476;8.310;2023-07-13T03:58:50;91434.84;;;14.37;84.68
53300;BME280;39187;48.476;8.310;2023-07-13T04:01:18;91444.56;;;14.44;84.88
53300;BME280;39187;48.476;8.310;2023-07-13T04:03:44;91447.56;;;14.46;85.62
53300;BME280;39187;48.476;8.310;2023-07-13T04:06:28;91437.91;;;14.49;85.65
53300;BME280;39187;48.476;8.310;2023-07-13T04:08:59;91435.34;;;14.45;82.33
53300;BME280;39187;48.476;8.310;2023-07-13T04:11:27;91443.78;;;14.56;80.54
53300;BME280;39187;48.476;8.310;2023-07-13T04:13:54;91442.50;;;14.61;80.20
53300;BME280;39187;48.476;8.310;2023-07-13T04:16:20;91439.72;;;14.64;79.49
53300;BME280;39187;48.476;8.310;2023-07-13T04:18:46;91437.56;;;14.72;78.80
53300;BME280;39187;48.476;8.310;2023-07-13T04:21:13;91441.94;;;14.78;77.47
53300;BME280;39187;48.476;8.310;2023-07-13T04:23:39;91443.59;;;14.85;76.67
53300;BME280;39187;48.476;8.310;2023-07-13T04:26:05;91446.03;;;14.92;76.09
53300;BME280;39187;48.476;8.310;2023-07-13T04:28:31;91447.91;;;14.82;75.28
53300;BME280;39187;48.476;8.310;2023-07-13T04:30:57;91451.22;;;14.87;75.25
53300;BME280;39187;48.476;8.310;2023-07-13T04:33:23;91445.72;;;15.03;74.93
53300;BME280;39187;48.476;8.310;2023-07-13T04:35:50;91446.88;;;15.58;73.68
53300;BME280;39187;48.476;8.310;2023-07-13T04:38:20;91447.22;;;16.40;70.29
53300;BME280;39187;48.476;8.310;2023-07-13T04:40:46;91451.56;;;16.96;66.56
53300;BME280;39187;48.476;8.310;2023-07-13T04:43:11;91454.25;;;17.41;64.18
53300;BME280;39187;48.476;8.310;2023-07-13T04:45:37;91457.66;;;17.87;62.59
53300;BME280;39187;48.476;8.310;2023-07-13T04:48:03;91453.66;;;18.25;60.67
53300;BME280;39187;48.476;8.310;2023-07-13T04:50:28;91459.22;;;18.21;59.97
53300;BME280;39187;48.476;8.310;2023-07-13T04:52:54;91458.13;;;17.86;59.98
53300;BME280;39187;48.476;8.310;2023-07-13T04:55:20;91460.38;;;17.60;61.41
53300;BME280;39187;48.476;8.310;2023-07-13T04:57:46;91456.34;;;17.55;62.42
53300;BME280;39187;48.476;8.310;2023-07-13T05:00:12;91458.59;;;17.48;61.81
53300;BME280;39187;48.476;8.310;2023-07-13T05:02:39;91453.22;;;17.39;62.12
53300;BME280;39187;48.476;8.310;2023-07-13T05:05:05;91462.50;;;17.47;62.56
53300;BME280;39187;48.476;8.310;2023-07-13T05:07:31;91458.31;;;17.46;64.23
53300;BME280;39187;48.476;8.310;2023-07-13T05:09:59;91464.88;;;17.45;64.57
53300;BME280;39187;48.476;8.310;2023-07-13T05:12:25;91464.44;;;17.46;65.22
53300;BME280;39187;48.476;8.310;2023-07-13T05:14:51;91463.53;;;17.40;67.30
53300;BME280;39187;48.476;8.310;2023-07-13T05:17:16;91474.28;;;17.31;68.65
53300;BME280;39187;48.476;8.310;2023-07-13T05:19:42;91475.94;;;17.29;67.81
53300;BME280;39187;48.476;8.310;2023-07-13T05:22:07;91483.88;;;17.32;66.27
53300;BME280;39187;48.476;8.310;2023-07-13T05:24:33;91478.63;;;17.29;65.87
53300;BME280;39187;48.476;8.310;2023-07-13T05:26:59;91488.03;;;17.24;65.59
53300;BME280;39187;48.476;8.310;2023-07-13T05:29:24;91484.47;;;17.27;64.84
53300;BME280;39187;48.476;8.310;2023-07-13T05:31:50;91485.50;;;17.39;64.47
53300;BME280;39187;48.476;8.310;2023-07-13T05:34:16;91482.50;;;17.82;63.42
53300;BME280;39187;48.476;8.310;2023-07-13T05:36:41;91486.53;;;18.56;59.54
53300;BME280;39187;48.476;8.310;2023-07-13T05:39:07;91496.44;;;19.07;59.59
53300;BME280;39187;48.476;8.310;2023-07-13T05:41:33;91490.59;;;19.71;57.85
53300;BME280;39187;48.476;8.310;2023-07-13T05:43:58;91487.00;;;20.18;57.32
53300;BME280;39187;48.476;8.310;2023-07-13T05:46:24;91492.59;;;20.58;56.82
53300;BME280;39187;48.476;8.310;2023-07-13T05:48:50;91499.69;;;21.26;54.67
53300;BME280;39187;48.476;8.310;2023-07-13T05:51:15;91502.06;;;21.38;53.26
53300;BME280;39187;48.476;8.310;2023-07-13T05:53:41;91502.22;;;21.70;53.18
53300;BME280;39187;48.476;8.310;2023-07-13T05:56:06;91508.78;;;22.35;51.12
53300;BME280;39187;48.476;8.310;2023-07-13T05:58:32;91510.19;;;22.25;47.90
53300;BME280;39187;48.476;8.310;2023-07-13T06:01:03;91510.13;;;23.08;44.05
53300;BME280;39187;48.476;8.310;2023-07-13T06:03:29;91506.28;;;22.89;43.67
53300;BME280;39187;48.476;8.310;2023-07-13T06:05:55;91511.75;;;23.90;42.14
53300;BME280;39187;48.476;8.310;2023-07-13T06:08:21;91510.13;;;24.26;41.13
53300;BME280;39187;48.476;8.310;2023-07-13T06:10:46;91509.22;;;24.57;41.44
53300;BME280;39187;48.476;8.310;2023-07-13T06:13:12;91512.44;;;24.95;39.58
53300;BME280;39187;48.476;8.310;2023-07-13T06:15:37;91519.31;;;25.40;39.02
53300;BME280;39187;48.476;8.310;2023-07-13T06:18:03;91512.66;;;25.25;38.23
53300;BME280;39187;48.476;8.310;2023-07-13T06:20:29;91517.84;;;25.23;38.37
53300;BME280;39187;48.476;8.310;2023-07-13T06:22:54;91516.84;;;25.37;37.76
53300;BME280;39187;48.476;8.310;2023-07-13T06:25:20;91520.28;;;25.43;38.31
53300;BME280;39187;48.476;8.310;2023-07-13T06:27:46;91524.09;;;25.98;37.33
53300;BME280;39187;48.476;8.310;2023-07-13T06:30:12;91522.19;;;25.76;37.00
53300;BME280;39187;48.476;8.310;2023-07-13T06:32:37;91529.69;;;25.53;37.42
53300;BME280;39187;48.476;8.310;2023-07-13T06:35:03;91520.84;;;24.97;38.61
53300;BME280;39187;48.476;8.310;2023-07-13T06:37:29;91531.91;;;25.54;37.09
53300;BME280;39187;48.476;8.310;2023-07-13T06:39:54;91520.25;;;26.23;35.50
53300;BME280;39187;48.476;8.310;2023-07-13T06:42:20;91527.38;;;25.85;36.44
53300;BME280;39187;48.476;8.310;2023-07-13T06:44:46;91539.59;;;26.19;36.40
53300;BME280;39187;48.476;8.310;2023-07-13T06:47:11;91530.34;;;25.92;35.92
53300;BME280;39187;48.476;8.310;2023-07-13T06:49:37;91530.19;;;25.57;37.33
53300;BME280;39187;48.476;8.310;2023-07-13T06:52:03;91524.72;;;25.63;36.54
53300;BME280;39187;48.476;8.310;2023-07-13T06:54:29;91529.16;;;25.71;36.96
53300;BME280;39187;48.476;8.310;2023-07-13T06:56:54;91531.59;;;25.86;36.60
53300;BME280;39187;48.476;8.310;2023-07-13T06:59:20;91533.25;;;26.00;36.30
53300;BME280;39187;48.476;8.310;2023-07-13T07:01:46;91536.38;;;26.21;35.68
53300;BME280;39187;48.476;8.310;2023-07-13T07:04:11;91542.66;;;26.57;34.90
53300;BME280;39187;48.476;8.310;2023-07-13T07:06:37;91538.16;;;27.00;33.91
53300;BME280;39187;48.476;8.310;2023-07-13T07:09:02;91537.91;;;26.63;34.85
53300;BME280;39187;48.476;8.310;2023-07-13T07:11:28;91539.78;;;26.79;34.37
53300;BME280;39187;48.476;8.310;2023-07-13T07:13:54;91546.59;;;26.61;34.81
53300;BME280;39187;48.476;8.310;2023-07-13T07:16:20;91537.50;;;26.83;34.36
53300;BME280;39187;48.476;8.310;2023-07-13T07:18:46;91544.13;;;26.58;34.11
53300;BME280;39187;48.476;8.310;2023-07-13T07:21:12;91546.19;;;26.87;33.53
53300;BME280;39187;48.476;8.310;2023-07-13T07:23:38;91542.00;;;26.81;33.89
53300;BME280;39187;48.476;8.310;2023-07-13T07:26:04;91548.06;;;26.68;34.21
53300;BME280;39187;48.476;8.310;2023-07-13T07:28:29;91550.75;;;27.09;33.68
53300;BME280;39187;48.476;8.310;2023-07-13T07:30:57;91543.59;;;27.30;33.13
53300;BME280;39187;48.476;8.310;2023-07-13T07:33:24;91547.06;;;27.61;32.88
53300;BME280;39187;48.476;8.310;2023-07-13T07:35:50;91538.22;;;27.73;33.40
53300;BME280;39187;48.476;8.310;2023-07-13T07:38:16;91556.97;;;27.39;33.63
53300;BME280;39187;48.476;8.310;2023-07-13T07:40:42;91553.97;;;27.67;33.04
53300;BME280;39187;48.476;8.310;2023-07-13T07:43:09;91551.81;;;27.84;32.41
53300;BME280;39187;48.476;8.310;2023-07-13T07:45:35;91550.53;;;27.61;32.85
53300;BME280;39187;48.476;8.310;2023-07-13T07:48:03;91551.63;;;27.23;33.56
53300;BME280;39187;48.476;8.310;2023-07-13T07:50:29;91560.50;;;27.29;32.97
53300;BME280;39187;48.476;8.310;2023-07-13T07:52:55;91567.69;;;27.62;32.58
53300;BME280;39187;48.476;8.310;2023-07-13T07:55:24;91560.31;;;27.51;33.05
53300;BME280;39187;48.476;8.310;2023-07-13T07:57:51;91559.81;;;27.23;33.26
53300;BME280;39187;48.476;8.310;2023-07-13T08:00:17;91566.38;;;27.14;32.64
53300;BME280;39187;48.476;8.310;2023-07-13T08:02:43;91561.53;;;27.56;31.78
53300;BME280;39187;48.476;8.310;2023-07-13T08:05:08;91571.31;;;27.16;32.47
53300;BME280;39187;48.476;8.310;2023-07-13T08:07:35;91573.75;;;26.89;33.20
53300;BME280;39187;48.476;8.310;2023-07-13T08:10:01;91570.59;;;26.74;33.12
53300;BME280;39187;48.476;8.310;2023-07-13T08:12:26;91568.09;;;25.61;34.19
53300;BME280;39187;48.476;8.310;2023-07-13T08:14:52;91571.34;;;26.22;34.23
53300;BME280;39187;48.476;8.310;2023-07-13T08:17:19;91568.94;;;26.60;33.56
53300;BME280;39187;48.476;8.310;2023-07-13T08:19:45;91567.47;;;27.00;33.42
53300;BME280;39187;48.476;8.310;2023-07-13T08:22:11;91570.59;;;27.09;31.85
53300;BME280;39187;48.476;8.310;2023-07-13T08:24:36;91573.78;;;27.19;31.73
53300;BME280;39187;48.476;8.310;2023-07-13T08:27:02;91578.50;;;27.19;32.68
53300;BME280;39187;48.476;8.310;2023-07-13T08:29:28;91577.88;;;27.01;33.30
53300;BME280;39187;48.476;8.310;2023-07-13T08:31:53;91570.41;;;26.66;32.33
53300;BME280;39187;48.476;8.310;2023-07-13T08:34:19;91579.19;;;26.89;32.32
53300;BME280;39187;48.476;8.310;2023-07-13T08:36:45;91566.50;;;26.97;32.52
53300;BME280;39187;48.476;8.310;2023-07-13T08:39:11;91573.50;;;27.47;31.99
53300;BME280;39187;48.476;8.310;2023-07-13T08:41:36;91574.75;;;27.51;31.56
53300;BME280;39187;48.476;8.310;2023-07-13T08:44:07;91575.13;;;26.66;33.19
53300;BME280;39187;48.476;8.310;2023-07-13T08:46:42;91588.38;;;26.45;33.05
53300;BME280;39187;48.476;8.310;2023-07-13T08:49:14;91584.50;;;26.70;33.12
53300;BME280;39187;48.476;8.310;2023-07-13T08:51:51;91585.47;;;26.79;32.00
53300;BME280;39187;48.476;8.310;2023-07-13T08:54:28;91575.44;;;26.98;32.09
53300;BME280;39187;48.476;8.310;2023-07-13T08:56:56;91582.44;;;26.88;33.19
53300;BME280;39187;48.476;8.310;2023-07-13T08:59:27;91585.75;;;26.23;34.10
53300;BME280;39187;48.476;8.310;2023-07-13T09:02:22;91589.78;;;26.11;34.70
53300;BME280;39187;48.476;8.310;2023-07-13T09:07:57;91584.69;;;26.84;33.20
53300;BME280;39187;48.476;8.310;2023-07-13T09:10:31;91593.38;;;26.88;33.01
53300;BME280;39187;48.476;8.310;2023-07-13T09:15:44;91584.53;;;26.24;34.63
53300;BME280;39187;48.476;8.310;2023-07-13T09:20:50;91588.03;;;26.65;34.07
53300;BME280;39187;48.476;8.310;2023-07-13T09:23:20;91590.22;;;26.72;34.50
53300;BME280;39187;48.476;8.310;2023-07-13T09:25:54;91593.13;;;25.70;35.53
53300;BME280;39187;48.476;8.310;2023-07-13T09:28:26;91587.75;;;24.16;36.25
53300;BME280;39187;48.476;8.310;2023-07-13T09:31:00;91582.25;;;25.20;35.59
53300;BME280;39187;48.476;8.310;2023-07-13T09:33:27;91584.94;;;25.65;35.17
53300;BME280;39187;48.476;8.310;2023-07-13T09:35:55;91601.56;;;25.44;35.69
53300;BME280;39187;48.476;8.310;2023-07-13T09:38:25;91592.91;;;25.07;35.79
53300;BME280;39187;48.476;8.310;2023-07-13T09:41:19;91596.59;;;25.43;33.92
53300;BME280;39187;48.476;8.310;2023-07-13T09:44:07;91591.94;;;25.15;33.82
53300;BME280;39187;48.476;8.310;2023-07-13T09:46:38;91599.78;;;24.58;34.90
53300;BME280;39187;48.476;8.310;2023-07-13T09:49:03;91599.06;;;24.91;35.43
53300;BME280;39187;48.476;8.310;2023-07-13T09:51:29;91603.03;;;25.29;34.79
53300;BME280;39187;48.476;8.310;2023-07-13T09:53:55;91600.56;;;25.31;33.86
53300;BME280;39187;48.476;8.310;2023-07-13T09:56:27;91594.41;;;25.08;35.13
53300;BME280;39187;48.476;8.310;2023-07-13T09:58:55;91598.09;;;25.16;35.33
53300;BME280;39187;48.476;8.310;2023-07-13T10:01:37;91599.84;;;25.13;34.65
53300;BME280;39187;48.476;8.310;2023-07-13T10:04:14;91611.91;;;24.85;35.77
53300;BME280;39187;48.476;8.310;2023-07-13T10:06:42;91613.56;;;24.38;37.07
53300;BME280;39187;48.476;8.310;2023-07-13T10:09:09;91608.81;;;23.73;38.58
53300;BME280;39187;48.476;8.310;2023-07-13T10:11:36;91612.56;;;24.41;37.85
53300;BME280;39187;48.476;8.310;2023-07-13T10:16:37;91604.41;;;23.44;37.92
53300;BME280;39187;48.476;8.310;2023-07-13T10:19:13;91600.38;;;23.66;37.85
53300;BME280;39187;48.476;8.310;2023-07-13T10:21:53;91604.28;;;23.22;38.66
53300;BME280;39187;48.476;8.310;2023-07-13T10:24:22;91610.34;;;22.80;39.62
53300;BME280;39187;48.476;8.310;2023-07-13T10:26:54;91607.09;;;23.39;37.66
53300;BME280;39187;48.476;8.310;2023-07-13T10:29:23;91606.28;;;22.70;37.94
53300;BME280;39187;48.476;8.310;2023-07-13T10:31:51;91606.72;;;22.89;38.10
53300;BME280;39187;48.476;8.310;2023-07-13T10:34:16;91609.72;;;22.91;39.18
53300;BME280;39187;48.476;8.310;2023-07-13T10:36:45;91612.84;;;22.84;38.98
53300;BME280;39187;48.476;8.310;2023-07-13T10:39:30;91615.34;;;23.18;37.92
53300;BME280;39187;48.476;8.310;2023-07-13T10:42:01;91612.06;;;22.77;38.85
53300;BME280;39187;48.476;8.310;2023-07-13T10:44:30;91609.72;;;22.91;39.41
53300;BME280;39187;48.476;8.310;2023-07-13T10:47:08;91610.41;;;22.86;40.48
53300;BME280;39187;48.476;8.310;2023-07-13T10:49:37;91613.19;;;22.91;39.63
53300;BME280;39187;48.476;8.310;2023-07-13T10:52:03;91606.72;;;22.63;39.45
53300;BME280;39187;48.476;8.310;2023-07-13T10:57:26;91599.22;;;23.41;37.91
53300;BME280;39187;48.476;8.310;2023-07-13T11:02:29;91607.50;;;22.43;39.62
53300;BME280;39187;48.476;8.310;2023-07-13T11:04:55;91611.81;;;21.89;40.38
53300;BME280;39187;48.476;8.310;2023-07-13T11:10:31;91613.94;;;21.65;40.66
53300;BME280;39187;48.476;8.310;2023-07-13T11:12:56;91615.16;;;21.64;39.99
53300;BME280;39187;48.476;8.310;2023-07-13T11:15:32;91604.09;;;22.02;39.88
53300;BME280;39187;48.476;8.310;2023-07-13T11:18:19;91602.56;;;21.26;41.20
53300;BME280;39187;48.476;8.310;2023-07-13T11:20:48;91605.13;;;21.00;42.53
53300;BME280;39187;48.476;8.310;2023-07-13T11:25:44;91598.91;;;21.64;40.75
53300;BME280;39187;48.476;8.310;2023-07-13T11:33:24;91599.13;;;21.60;40.57
53300;BME280;39187;48.476;8.310;2023-07-13T11:36:07;91611.47;;;21.81;40.64
53300;BME280;39187;48.476;8.310;2023-07-13T11:38:39;91613.69;;;21.83;41.14
53300;BME280;39187;48.476;8.310;2023-07-13T11:41:29;91610.22;;;21.42;41.48
53300;BME280;39187;48.476;8.310;2023-07-13T11:44:06;91600.69;;;21.67;41.01
53300;BME280;39187;48.476;8.310;2023-07-13T11:46:33;91606.91;;;21.52;40.94
53300;BME280;39187;48.476;8.310;2023-07-13T11:48:58;91602.16;;;21.47;41.86
53300;BME280;39187;48.476;8.310;2023-07-13T11:51:30;91604.47;;;21.54;40.50
53300;BME280;39187;48.476;8.310;2023-07-13T11:54:01;91604.13;;;21.47;41.55
53300;BME280;39187;48.476;8.310;2023-07-13T11:56:28;91599.13;;;21.60;41.67
53300;BME280;39187;48.476;8.310;2023-07-13T11:58:56;91603.22;;;21.35;40.71
53300;BME280;39187;48.476;8.310;2023-07-13T12:01:28;91606.03;;;21.61;40.77
53300;BME280;39187;48.476;8.310;2023-07-13T12:03:59;91602.44;;;21.49;39.96
53300;BME280;39187;48.476;8.310;2023-07-13T12:06:34;91601.78;;;21.40;40.68
53300;BME280;39187;48.476;8.310;2023-07-13T12:09:12;91603.53;;;21.08;41.38
53300;BME280;39187;48.476;8.310;2023-07-13T12:11:45;91606.34;;;20.69;40.68
53300;BME280;39187;48.476;8.310;2023-07-13T12:14:18;91600.50;;;20.71;41.72
53300;BME280;39187;48.476;8.310;2023-07-13T12:16:46;91600.28;;;21.18;41.82
53300;BME280;39187;48.476;8.310;2023-07-13T12:19:21;91593.34;;;21.52;41.29
53300;BME280;39187;48.476;8.310;2023-07-13T12:21:47;91591.28;;;21.62;40.89
53300;BME280;39187;48.476;8.310;2023-07-13T12:24:16;91595.78;;;21.30;41.93
53300;BME280;39187;48.476;8.310;2023-07-13T12:26:43;91598.09;;;21.57;41.78
53300;BME280;39187;48.476;8.310;2023-07-13T12:29:15;91599.59;;;21.79;40.80
53300;BME280;39187;48.476;8.310;2023-07-13T12:31:44;91600.34;;;21.59;41.06
53300;BME280;39187;48.476;8.310;2023-07-13T12:34:18;91598.59;;;21.56;40.90
53300;BME280;39187;48.476;8.310;2023-07-13T12:36:56;91593.25;;;21.82;41.18
53300;BME280;39187;48.476;8.310;2023-07-13T12:39:45;91600.41;;;21.44;41.30
53300;BME280;39187;48.476;8.310;2023-07-13T12:42:27;91602.03;;;21.22;40.10
53300;BME280;39187;48.476;8.310;2023-07-13T12:45:00;91605.66;;;21.33;40.58
53300;BME280;39187;48.476;8.310;2023-07-13T12:47:27;91601.69;;;21.49;41.03
53300;BME280;39187;48.476;8.310;2023-07-13T12:49:58;91600.56;;;21.76;41.57
53300;BME280;39187;48.476;8.310;2023-07-13T12:52:34;91599.00;;;21.89;41.48
53300;BME280;39187;48.476;8.310;2023-07-13T12:55:06;91602.47;;;22.10;41.83
53300;BME280;39187;48.476;8.310;2023-07-13T12:57:40;91601.88;;;22.21;41.29
53300;BME280;39187;48.476;8.310;2023-07-13T13:02:49;91598.66;;;22.02;41.55
53300;BME280;39187;48.476;8.310;2023-07-13T13:05:15;91611.69;;;21.98;42.16
53300;BME280;39187;48.476;8.310;2023-07-13T13:07:40;91611.59;;;21.92;41.69
53300;BME280;39187;48.476;8.310;2023-07-13T13:10:12;91606.94;;;22.13;42.23
53300;BME280;39187;48.476;8.310;2023-07-13T13:12:39;91603.03;;;22.14;41.69
53300;BME280;39187;48.476;8.310;2023-07-13T13:15:08;91604.78;;;21.97;42.67
53300;BME280;39187;48.476;8.310;2023-07-13T13:17:34;91611.91;;;22.15;42.79
53300;BME280;39187;48.476;8.310;2023-07-13T13:20:00;91610.88;;;22.12;42.54
53300;BME280;39187;48.476;8.310;2023-07-13T13:22:26;91614.41;;;21.98;42.63
53300;BME280;39187;48.476;8.310;2023-07-13T13:24:52;91614.81;;;22.11;42.63
53300;BME280;39187;48.476;8.310;2023-07-13T13:27:19;91610.94;;;22.18;43.05
53300;BME280;39187;48.476;8.310;2023-07-13T13:29:46;91608.88;;;21.92;42.90
53300;BME280;39187;48.476;8.310;2023-07-13T13:32:14;91604.44;;;22.10;41.84
53300;BME280;39187;48.476;8.310;2023-07-13T13:34:41;91608.94;;;21.78;43.39
53300;BME280;39187;48.476;8.310;2023-07-13T13:37:18;91609.91;;;21.95;43.91